createdAt,value
2019-02-28T00:00:43.191Z,7.60
2019-02-28T00:01:46.029Z,7.90
2019-02-28T00:02:43.076Z,7.40
2019-02-28T00:03:43.032Z,7.30
2019-02-28T00:04:45.134Z,8.10
2019-02-28T00:05:43.023Z,6.90
2019-02-28T00:06:50.062Z,8.40
2019-02-28T00:07:42.988Z,7.70
2019-02-28T00:08:43.010Z,7.70
2019-02-28T00:09:42.968Z,8.40
2019-02-28T00:10:45.002Z,8.20
2019-02-28T00:11:42.946Z,7.80
2019-02-28T00:12:45.279Z,7.50
2019-02-28T00:13:42.924Z,8.00
2019-02-28T00:14:42.950Z,7.90
2019-02-28T00:15:42.915Z,7.70
2019-02-28T00:16:42.964Z,7.00
2019-02-28T00:17:43.711Z,8.10
2019-02-28T00:18:42.980Z,7.70
2019-02-28T00:19:42.856Z,8.30
2019-02-28T00:20:42.918Z,8.40
2019-02-28T00:21:42.836Z,7.60
2019-02-28T00:22:42.901Z,8.20
2019-02-28T00:23:42.813Z,8.00
2019-02-28T00:24:42.915Z,8.40
2019-02-28T00:25:42.791Z,7.40
2019-02-28T00:26:46.318Z,9.50
2019-02-28T00:27:42.770Z,7.90
2019-02-28T00:28:42.840Z,8.80
2019-02-28T00:29:42.751Z,8.20
2019-02-28T00:30:42.752Z,8.50
2019-02-28T00:31:42.741Z,8.30
2019-02-28T00:32:42.771Z,8.20
2019-02-28T00:33:42.704Z,7.70
2019-02-28T00:34:42.785Z,8.00
2019-02-28T00:35:44.695Z,8.40
2019-02-28T00:36:42.729Z,9.10
2019-02-28T00:37:42.662Z,9.10
2019-02-28T00:38:42.709Z,8.10
2019-02-28T00:39:42.639Z,8.20
2019-02-28T00:40:42.729Z,8.70
2019-02-28T00:41:44.317Z,8.30
2019-02-28T00:42:42.635Z,8.40
2019-02-28T00:43:42.596Z,8.50
2019-02-28T00:44:42.648Z,8.20
2019-02-28T00:45:42.574Z,7.70
2019-02-28T00:46:45.024Z,7.50
2019-02-28T00:47:42.552Z,8.10
2019-02-28T00:48:42.572Z,9.30
2019-02-28T00:49:42.529Z,8.60
2019-02-28T00:50:44.634Z,8.00
2019-02-28T00:51:42.522Z,8.50
2019-02-28T00:52:44.547Z,9.20
2019-02-28T00:53:42.491Z,10.10
2019-02-28T00:54:44.344Z,8.80
2019-02-28T00:55:45.873Z,8.30
2019-02-28T00:56:44.503Z,8.30
2019-02-28T00:57:42.443Z,9.30
2019-02-28T00:58:43.463Z,9.10
2019-02-28T00:59:42.421Z,8.50
2019-02-28T01:00:42.449Z,8.90
2019-02-28T01:01:43.122Z,8.00
2019-02-28T01:02:42.463Z,9.20
2019-02-28T01:03:42.376Z,9.10
2019-02-28T01:04:42.477Z,8.60
2019-02-28T01:05:42.357Z,8.60
2019-02-28T01:06:42.541Z,8.90
2019-02-28T01:07:42.333Z,9.60
2019-02-28T01:08:42.404Z,10.20
2019-02-28T01:09:42.316Z,8.70
2019-02-28T01:10:42.416Z,9.40
2019-02-28T01:11:44.780Z,9.00
2019-02-28T01:12:42.327Z,8.80
2019-02-28T01:13:42.271Z,9.60
2019-02-28T01:14:42.346Z,9.20
2019-02-28T01:15:44.906Z,8.30
2019-02-28T01:16:42.284Z,9.40
2019-02-28T01:17:42.226Z,9.60
2019-02-28T01:18:42.268Z,9.00
2019-02-28T01:19:42.366Z,10.30
2019-02-28T01:20:42.279Z,9.30
2019-02-28T01:21:42.195Z,9.70
2019-02-28T01:22:42.194Z,9.50
2019-02-28T01:23:42.163Z,9.30
2019-02-28T01:24:42.210Z,10.10
2019-02-28T01:25:42.142Z,8.70
2019-02-28T01:26:43.371Z,10.60
2019-02-28T01:27:42.120Z,9.80
2019-02-28T01:28:42.132Z,9.80
2019-02-28T01:29:42.097Z,9.40
2019-02-28T01:30:42.144Z,9.60
2019-02-28T01:31:43.265Z,9.40
2019-02-28T01:32:42.160Z,9.30
2019-02-28T01:33:42.051Z,9.90
2019-02-28T01:34:42.069Z,10.40
2019-02-28T01:35:42.032Z,10.00
2019-02-28T01:36:43.141Z,9.40
2019-02-28T01:37:42.011Z,10.00
2019-02-28T01:38:49.059Z,9.50
2019-02-28T01:39:41.988Z,10.60
2019-02-28T01:40:42.007Z,9.30
2019-02-28T01:41:42.247Z,10.20
2019-02-28T01:42:53.935Z,9.90
2019-02-28T01:43:42.947Z,10.50
2019-02-28T01:44:42.960Z,10.20
2019-02-28T01:45:44.211Z,10.00
2019-02-28T01:46:41.946Z,10.30
2019-02-28T01:47:41.915Z,10.20
2019-02-28T01:48:41.959Z,10.30
2019-02-28T01:49:41.885Z,10.00
2019-02-28T01:50:41.974Z,10.20
2019-02-28T01:51:41.863Z,9.50
2019-02-28T01:52:46.009Z,10.70
2019-02-28T01:53:41.836Z,10.40
2019-02-28T01:54:41.899Z,10.80
2019-02-28T01:55:41.818Z,10.30
2019-02-28T01:56:41.911Z,12.00
2019-02-28T01:57:44.130Z,9.40
2019-02-28T01:58:41.823Z,10.40
2019-02-28T01:59:41.775Z,10.60
2019-02-28T02:00:41.836Z,10.30
2019-02-28T02:01:41.752Z,10.90
2019-02-28T02:02:41.779Z,10.70
2019-02-28T02:03:41.824Z,10.70
2019-02-28T02:04:43.154Z,10.90
2019-02-28T02:05:41.706Z,10.00
2019-02-28T02:06:41.775Z,10.80
2019-02-28T02:07:41.699Z,11.10
2019-02-28T02:08:41.791Z,11.70
2019-02-28T02:09:42.620Z,10.50
2019-02-28T02:10:41.699Z,10.60
2019-02-28T02:11:41.642Z,10.90
2019-02-28T02:12:41.747Z,10.20
2019-02-28T02:13:42.017Z,10.80
2019-02-28T02:14:44.891Z,11.20
2019-02-28T02:15:41.598Z,11.00
2019-02-28T02:16:42.034Z,9.70
2019-02-28T02:17:41.593Z,11.30
2019-02-28T02:18:43.348Z,11.10
2019-02-28T02:19:41.556Z,11.40
2019-02-28T02:20:41.562Z,12.80
2019-02-28T02:21:41.534Z,12.70
2019-02-28T02:22:44.517Z,13.90
2019-02-28T02:23:41.512Z,12.40
2019-02-28T02:24:41.589Z,11.90
2019-02-28T02:25:41.491Z,11.50
2019-02-28T02:26:42.362Z,12.80
2019-02-28T02:27:41.497Z,12.40
2019-02-28T02:28:42.539Z,11.30
2019-02-28T02:29:41.449Z,11.90
2019-02-28T02:30:41.529Z,11.50
2019-02-28T02:31:43.526Z,12.80
2019-02-28T02:32:41.473Z,12.20
2019-02-28T02:33:41.409Z,12.70
2019-02-28T02:34:41.453Z,12.40
2019-02-28T02:35:42.612Z,11.80
2019-02-28T02:36:41.467Z,12.20
2019-02-28T02:37:41.378Z,12.60
2019-02-28T02:38:41.832Z,13.20
2019-02-28T02:39:41.343Z,12.10
2019-02-28T02:40:41.391Z,12.20
2019-02-28T02:41:41.322Z,11.20
2019-02-28T02:42:47.438Z,10.80
2019-02-28T02:43:42.300Z,12.40
2019-02-28T02:44:41.316Z,12.00
2019-02-28T02:45:43.479Z,11.10
2019-02-28T02:46:41.331Z,12.80
2019-02-28T02:47:41.286Z,13.10
2019-02-28T02:48:42.325Z,13.30
2019-02-28T02:49:41.235Z,12.20
2019-02-28T02:50:41.255Z,10.90
2019-02-28T02:51:49.154Z,11.30
2019-02-28T02:52:42.212Z,12.80
2019-02-28T02:53:42.015Z,12.90
2019-02-28T02:54:41.177Z,12.00
2019-02-28T02:55:41.188Z,11.70
2019-02-28T02:56:42.173Z,12.20
2019-02-28T02:57:41.244Z,11.90
2019-02-28T02:58:41.135Z,13.00
2019-02-28T02:59:41.218Z,13.00
2019-02-28T03:00:41.115Z,12.50
2019-02-28T03:01:41.126Z,12.00
2019-02-28T03:02:41.112Z,12.90
2019-02-28T03:03:44.251Z,12.20
2019-02-28T03:04:41.069Z,11.70
2019-02-28T03:05:41.153Z,11.50
2019-02-28T03:06:41.053Z,11.80
2019-02-28T03:07:41.097Z,11.40
2019-02-28T03:08:41.028Z,12.70
2019-02-28T03:09:43.772Z,12.40
2019-02-28T03:10:41.006Z,12.60
2019-02-28T03:11:50.001Z,14.70
2019-02-28T03:12:40.998Z,13.40
2019-02-28T03:13:43.624Z,14.20
2019-02-28T03:14:40.963Z,13.20
2019-02-28T03:15:48.513Z,11.40
2019-02-28T03:16:40.948Z,13.30
2019-02-28T03:17:46.503Z,12.70
2019-02-28T03:18:41.919Z,12.50
2019-02-28T03:19:40.946Z,13.70
2019-02-28T03:20:42.326Z,13.50
2019-02-28T03:21:40.959Z,12.70
2019-02-28T03:22:40.882Z,13.30
2019-02-28T03:23:40.931Z,13.80
2019-02-28T03:24:40.856Z,13.50
2019-02-28T03:25:40.883Z,13.00
2019-02-28T03:26:41.853Z,12.60
2019-02-28T03:27:40.899Z,12.80
2019-02-28T03:28:40.826Z,13.30
2019-02-28T03:29:43.736Z,13.00
2019-02-28T03:30:40.804Z,11.90
2019-02-28T03:31:40.821Z,11.30
2019-02-28T03:32:42.708Z,13.20
2019-02-28T03:33:40.880Z,12.20
2019-02-28T03:34:40.744Z,12.00
2019-02-28T03:35:43.738Z,13.00
2019-02-28T03:36:40.734Z,12.90
2019-02-28T03:37:40.757Z,12.70
2019-02-28T03:38:48.188Z,12.90
2019-02-28T03:39:41.691Z,14.50
2019-02-28T03:40:41.268Z,13.70
2019-02-28T03:41:40.682Z,14.60
2019-02-28T03:42:40.762Z,12.00
2019-02-28T03:43:43.822Z,12.00
2019-02-28T03:44:40.705Z,13.30
2019-02-28T03:45:40.631Z,13.50
2019-02-28T03:46:46.329Z,13.50
2019-02-28T03:47:41.603Z,13.20
2019-02-28T03:48:40.668Z,13.00
2019-02-28T03:49:48.548Z,12.90
2019-02-28T03:50:41.570Z,13.00
2019-02-28T03:51:40.671Z,12.60
2019-02-28T03:52:43.957Z,14.30
2019-02-28T03:53:40.607Z,11.90
2019-02-28T03:54:40.537Z,14.10
2019-02-28T03:55:42.625Z,13.20
2019-02-28T03:56:40.508Z,12.10
2019-02-28T03:57:41.626Z,14.20
2019-02-28T03:58:42.900Z,13.50
2019-02-28T03:59:40.501Z,12.60
2019-02-28T04:00:40.461Z,13.80
2019-02-28T04:01:57.026Z,13.10
2019-02-28T04:02:40.444Z,13.30
2019-02-28T04:03:41.499Z,14.40
2019-02-28T04:04:48.444Z,13.60
2019-02-28T04:05:41.404Z,14.00
2019-02-28T04:06:41.045Z,13.10
2019-02-28T04:07:40.395Z,13.40
2019-02-28T04:08:40.494Z,13.70
2019-02-28T04:09:44.026Z,12.60
2019-02-28T04:10:40.371Z,13.10
2019-02-28T04:11:40.340Z,14.10
2019-02-28T04:12:45.065Z,14.20
2019-02-28T04:13:41.337Z,14.60
2019-02-28T04:14:40.400Z,14.40
2019-02-28T04:15:49.796Z,14.20
2019-02-28T04:16:41.287Z,14.00
2019-02-28T04:17:40.319Z,14.00
2019-02-28T04:18:44.881Z,14.90
2019-02-28T04:19:41.361Z,13.70
2019-02-28T04:20:40.249Z,13.90
2019-02-28T04:21:46.261Z,14.40
2019-02-28T04:22:41.224Z,16.00
2019-02-28T04:23:40.295Z,14.10
2019-02-28T04:24:40.205Z,14.90
2019-02-28T04:25:40.269Z,14.40
2019-02-28T04:26:40.186Z,15.80
2019-02-28T04:27:41.807Z,14.80
2019-02-28T04:28:40.183Z,14.00
2019-02-28T04:29:40.195Z,14.10
2019-02-28T04:30:43.774Z,14.70
2019-02-28T04:31:40.211Z,13.80
2019-02-28T04:32:40.115Z,14.00
2019-02-28T04:33:40.153Z,15.60
2019-02-28T04:34:40.099Z,13.40
2019-02-28T04:35:40.133Z,15.60
2019-02-28T04:36:40.072Z,14.10
2019-02-28T04:37:44.811Z,14.20
2019-02-28T04:38:41.062Z,15.50
2019-02-28T04:39:40.060Z,14.80
2019-02-28T04:40:40.038Z,14.50
2019-02-28T04:41:41.116Z,16.00
2019-02-28T04:42:40.006Z,14.90
2019-02-28T04:43:41.616Z,15.10
2019-02-28T04:44:39.983Z,14.00
2019-02-28T04:45:39.998Z,16.00
2019-02-28T04:46:39.962Z,14.30
2019-02-28T04:47:40.528Z,14.00
2019-02-28T04:48:39.994Z,15.50
2019-02-28T04:49:41.987Z,13.40
2019-02-28T04:50:39.923Z,15.30
2019-02-28T04:51:40.944Z,16.00
2019-02-28T04:52:39.902Z,15.90
2019-02-28T04:53:39.951Z,15.50
2019-02-28T04:54:39.893Z,15.00
2019-02-28T04:55:39.966Z,15.80
2019-02-28T04:56:42.239Z,15.90
2019-02-28T04:57:40.904Z,15.00
2019-02-28T04:58:39.834Z,14.30
2019-02-28T04:59:39.922Z,14.20
2019-02-28T05:00:39.814Z,15.40
2019-02-28T05:01:39.903Z,14.70
2019-02-28T05:02:39.792Z,15.00
2019-02-28T05:03:39.815Z,15.60
2019-02-28T05:04:39.784Z,16.20
2019-02-28T05:05:39.828Z,15.90
2019-02-28T05:06:39.747Z,15.30
2019-02-28T05:07:39.845Z,15.50
2019-02-28T05:08:39.807Z,16.60
2019-02-28T05:09:39.783Z,16.80
2019-02-28T05:10:39.704Z,15.40
2019-02-28T05:11:39.770Z,14.30
2019-02-28T05:12:40.830Z,15.70
2019-02-28T05:13:41.182Z,15.60
2019-02-28T05:14:39.675Z,16.10
2019-02-28T05:15:41.088Z,15.50
2019-02-28T05:16:39.640Z,16.00
2019-02-28T05:17:39.709Z,16.50
2019-02-28T05:18:39.616Z,14.10
2019-02-28T05:19:39.647Z,15.20
2019-02-28T05:20:45.124Z,15.70
2019-02-28T05:21:40.664Z,14.10
2019-02-28T05:22:39.573Z,16.30
2019-02-28T05:23:39.642Z,16.10
2019-02-28T05:24:42.668Z,16.00
2019-02-28T05:25:39.554Z,16.50
2019-02-28T05:26:39.533Z,15.30
2019-02-28T05:27:39.569Z,15.20
2019-02-28T05:28:41.218Z,16.40
2019-02-28T05:29:44.815Z,16.30
2019-02-28T05:30:41.484Z,14.80
2019-02-28T05:31:39.495Z,15.60
2019-02-28T05:32:39.471Z,16.00
2019-02-28T05:34:00.531Z,15.00
2019-02-28T05:34:39.446Z,16.60
2019-02-28T05:35:41.469Z,17.00
2019-02-28T05:36:39.431Z,15.50
2019-02-28T05:37:39.432Z,15.80
2019-02-28T05:38:39.406Z,15.70
2019-02-28T05:39:39.477Z,16.80
2019-02-28T05:40:41.359Z,16.50
2019-02-28T05:41:39.460Z,14.70
2019-02-28T05:42:39.363Z,16.80
2019-02-28T05:43:39.370Z,16.90
2019-02-28T05:44:55.045Z,15.20
2019-02-28T05:45:39.333Z,16.00
2019-02-28T05:46:39.391Z,14.90
2019-02-28T05:47:46.167Z,16.80
2019-02-28T05:48:40.327Z,16.40
2019-02-28T05:49:40.684Z,15.60
2019-02-28T05:50:39.317Z,16.80
2019-02-28T05:51:39.265Z,16.40
2019-02-28T05:52:39.330Z,15.50
2019-02-28T05:53:41.346Z,13.90
2019-02-28T05:54:39.273Z,16.20
2019-02-28T05:55:39.221Z,15.30
2019-02-28T05:56:39.259Z,15.40
2019-02-28T05:57:42.906Z,15.30
2019-02-28T05:58:39.268Z,15.70
2019-02-28T05:59:39.192Z,16.30
2019-02-28T06:00:39.242Z,17.20
2019-02-28T06:01:39.157Z,16.20
2019-02-28T06:02:39.196Z,15.50
2019-02-28T06:03:39.137Z,14.70
2019-02-28T06:04:39.240Z,15.50
2019-02-28T06:05:39.152Z,16.90
2019-02-28T06:06:39.121Z,16.50
2019-02-28T06:07:39.092Z,16.20
2019-02-28T06:08:39.939Z,15.60
2019-02-28T06:09:39.088Z,15.40
2019-02-28T06:10:39.165Z,15.10
2019-02-28T06:11:39.052Z,15.90
2019-02-28T06:12:40.461Z,16.10
2019-02-28T06:13:39.059Z,15.20
2019-02-28T06:14:39.103Z,15.20
2019-02-28T06:15:39.011Z,15.80
2019-02-28T06:16:39.088Z,15.20
2019-02-28T06:17:38.998Z,15.30
2019-02-28T06:18:38.997Z,16.50
2019-02-28T06:19:40.177Z,16.40
2019-02-28T06:20:39.014Z,14.70
2019-02-28T06:21:38.944Z,14.80
2019-02-28T06:22:39.946Z,14.90
2019-02-28T06:23:40.808Z,15.60
2019-02-28T06:24:38.935Z,15.50
2019-02-28T06:25:38.914Z,14.70
2019-02-28T06:26:38.950Z,15.70
2019-02-28T06:27:41.794Z,15.10
2019-02-28T06:28:38.962Z,15.60
2019-02-28T06:29:38.858Z,14.50
2019-02-28T06:30:41.386Z,15.80
2019-02-28T06:31:38.836Z,15.40
2019-02-28T06:32:38.889Z,14.50
2019-02-28T06:33:38.816Z,16.20
2019-02-28T06:34:39.416Z,14.50
2019-02-28T06:35:38.806Z,15.00
2019-02-28T06:36:38.815Z,14.30
2019-02-28T06:37:39.192Z,15.80
2019-02-28T06:38:38.829Z,15.60
2019-02-28T06:39:38.766Z,16.30
2019-02-28T06:40:38.769Z,14.80
2019-02-28T06:41:39.977Z,15.80
2019-02-28T06:42:38.751Z,15.50
2019-02-28T06:43:38.707Z,14.90
2019-02-28T06:44:38.766Z,14.00
2019-02-28T06:45:38.700Z,15.40
2019-02-28T06:46:39.860Z,15.80
2019-02-28T06:47:39.087Z,17.20
2019-02-28T06:48:38.690Z,14.40
2019-02-28T06:49:41.890Z,15.60
2019-02-28T06:50:38.735Z,16.00
2019-02-28T06:51:38.623Z,14.30
2019-02-28T06:52:38.719Z,13.90
2019-02-28T06:53:38.602Z,14.00
2019-02-28T06:54:39.919Z,14.30
2019-02-28T06:55:38.597Z,14.00
2019-02-28T06:56:38.642Z,13.60
2019-02-28T06:57:38.555Z,13.20
2019-02-28T06:58:38.656Z,13.30
2019-02-28T06:59:39.046Z,13.40
2019-02-28T07:00:40.648Z,13.50
2019-02-28T07:01:38.515Z,14.60
2019-02-28T07:02:39.605Z,14.80
2019-02-28T07:03:38.907Z,12.70
2019-02-28T07:04:38.493Z,13.20
2019-02-28T07:05:38.483Z,14.20
2019-02-28T07:06:45.983Z,12.80
2019-02-28T07:07:38.450Z,13.00
2019-02-28T07:08:40.466Z,13.80
2019-02-28T07:09:38.425Z,13.80
2019-02-28T07:10:38.463Z,13.90
2019-02-28T07:11:38.405Z,12.70
2019-02-28T07:12:38.445Z,13.80
2019-02-28T07:13:39.823Z,13.20
2019-02-28T07:14:38.459Z,12.90
2019-02-28T07:15:38.380Z,12.10
2019-02-28T07:16:38.370Z,12.80
2019-02-28T07:17:38.339Z,12.50
2019-02-28T07:18:38.385Z,13.70
2019-02-28T07:19:38.317Z,12.40
2019-02-28T07:20:38.428Z,13.50
2019-02-28T07:21:42.829Z,15.40
2019-02-28T07:22:40.157Z,12.50
2019-02-28T07:23:38.292Z,14.10
2019-02-28T07:24:38.328Z,14.00
2019-02-28T07:25:38.265Z,13.50
2019-02-28T07:26:38.337Z,13.70
2019-02-28T07:27:38.229Z,13.00
2019-02-28T07:28:38.270Z,13.20
2019-02-28T07:29:38.214Z,13.50
2019-02-28T07:30:38.293Z,12.60
2019-02-28T07:31:38.192Z,12.70
2019-02-28T07:32:38.276Z,12.40
2019-02-28T07:33:38.164Z,13.60
2019-02-28T07:34:38.187Z,12.50
2019-02-28T07:35:38.158Z,12.60
2019-02-28T07:36:38.201Z,13.00
2019-02-28T07:37:38.120Z,14.10
2019-02-28T07:38:38.214Z,13.20
2019-02-28T07:39:40.433Z,13.60
2019-02-28T07:40:38.262Z,12.00
2019-02-28T07:41:38.077Z,12.80
2019-02-28T07:42:38.630Z,13.80
2019-02-28T07:43:38.057Z,13.60
2019-02-28T07:44:38.153Z,12.20
2019-02-28T07:45:38.038Z,11.70
2019-02-28T07:46:42.274Z,9.80
2019-02-28T07:47:38.014Z,12.50
2019-02-28T07:48:39.102Z,11.00
2019-02-28T07:49:37.990Z,14.00
2019-02-28T07:50:54.988Z,13.40
2019-02-28T07:51:37.984Z,14.40
2019-02-28T07:52:53.587Z,13.10
2019-02-28T07:53:40.962Z,13.60
2019-02-28T07:54:39.974Z,12.10
2019-02-28T07:55:37.923Z,13.30
2019-02-28T07:56:42.709Z,11.70
2019-02-28T07:57:38.899Z,14.10
2019-02-28T07:58:37.952Z,13.60
2019-02-28T07:59:42.238Z,12.90
2019-02-28T08:00:37.958Z,11.90
2019-02-28T08:01:37.876Z,13.50
2019-02-28T08:02:39.212Z,12.50
2019-02-28T08:03:37.849Z,11.90
2019-02-28T08:04:37.908Z,13.50
2019-02-28T08:05:37.818Z,13.00
2019-02-28T08:06:39.338Z,14.00
2019-02-28T08:07:37.799Z,12.30
2019-02-28T08:08:37.812Z,13.20
2019-02-28T08:09:40.661Z,13.00
2019-02-28T08:10:37.819Z,12.80
2019-02-28T08:11:37.767Z,14.70
2019-02-28T08:12:37.834Z,13.10
2019-02-28T08:13:38.625Z,11.80
2019-02-28T08:14:37.745Z,13.20
2019-02-28T08:15:37.720Z,13.10
2019-02-28T08:16:37.796Z,13.50
2019-02-28T08:17:40.609Z,12.90
2019-02-28T08:18:38.695Z,12.70
2019-02-28T08:19:37.664Z,14.70
2019-02-28T08:20:37.686Z,13.50
2019-02-28T08:21:43.955Z,12.70
2019-02-28T08:22:38.630Z,13.70
2019-02-28T08:23:37.745Z,12.90
2019-02-28T08:24:37.610Z,12.50
2019-02-28T08:25:39.718Z,13.60
2019-02-28T08:26:38.618Z,13.20
2019-02-28T08:27:37.629Z,13.90
2019-02-28T08:28:37.569Z,13.90
2019-02-28T08:29:37.643Z,13.90
2019-02-28T08:30:37.540Z,13.30
2019-02-28T08:31:37.555Z,13.60
2019-02-28T08:32:42.733Z,13.30
2019-02-28T08:33:38.597Z,13.30
2019-02-28T08:34:37.509Z,13.00
2019-02-28T08:35:38.502Z,12.80
2019-02-28T08:36:37.475Z,13.80
2019-02-28T08:37:37.577Z,11.10
2019-02-28T08:38:37.455Z,12.90
2019-02-28T08:39:41.195Z,14.20
2019-02-28T08:40:37.431Z,13.20
2019-02-28T08:41:38.442Z,11.70
2019-02-28T08:42:39.691Z,13.50
2019-02-28T08:43:37.432Z,13.70
2019-02-28T08:44:37.385Z,14.00
2019-02-28T08:45:37.445Z,12.50
2019-02-28T08:46:37.362Z,14.10
2019-02-28T08:47:37.389Z,12.60
2019-02-28T08:48:37.342Z,11.90
2019-02-28T08:49:42.285Z,12.80
2019-02-28T08:50:38.326Z,12.90
2019-02-28T08:51:37.384Z,13.70
2019-02-28T08:52:37.601Z,12.40
2019-02-28T08:53:37.400Z,13.00
2019-02-28T08:54:37.272Z,13.90
2019-02-28T08:55:38.298Z,12.80
2019-02-28T08:56:37.256Z,14.00
2019-02-28T08:57:37.354Z,13.30
2019-02-28T08:58:38.378Z,12.70
2019-02-28T08:59:37.337Z,11.00
2019-02-28T09:00:37.816Z,13.60
2019-02-28T09:01:40.013Z,11.00
2019-02-28T09:02:37.502Z,12.10
2019-02-28T09:03:37.267Z,12.80
2019-02-28T09:04:41.272Z,13.50
2019-02-28T09:05:37.292Z,13.30
2019-02-28T09:06:37.918Z,13.10
2019-02-28T09:07:37.249Z,13.60
2019-02-28T09:08:37.191Z,13.90
2019-02-28T09:09:37.218Z,12.80
2019-02-28T09:10:37.555Z,14.10
2019-02-28T09:11:37.123Z,13.50
2019-02-28T09:12:37.092Z,11.90
2019-02-28T09:13:39.943Z,13.40
2019-02-28T09:14:38.052Z,12.60
2019-02-28T09:15:37.180Z,13.00
2019-02-28T09:16:39.721Z,12.50
2019-02-28T09:17:39.141Z,14.00
2019-02-28T09:18:37.014Z,12.50
2019-02-28T09:19:38.117Z,13.00
2019-02-28T09:20:36.986Z,12.60
2019-02-28T09:21:37.999Z,12.40
2019-02-28T09:22:37.002Z,13.40
2019-02-28T09:23:37.718Z,12.80
2019-02-28T09:24:36.948Z,12.00
2019-02-28T09:25:37.002Z,13.00
2019-02-28T09:26:36.921Z,13.60
2019-02-28T09:27:39.028Z,13.60
2019-02-28T09:28:36.919Z,12.40
2019-02-28T09:29:36.927Z,13.10
2019-02-28T09:30:36.877Z,12.90
2019-02-28T09:31:39.078Z,13.60
2019-02-28T09:32:36.871Z,12.90
2019-02-28T09:33:36.885Z,12.70
2019-02-28T09:34:36.836Z,12.30
2019-02-28T09:35:36.868Z,13.30
2019-02-28T09:36:36.812Z,13.20
2019-02-28T09:37:37.879Z,12.40
2019-02-28T09:38:36.807Z,13.30
2019-02-28T09:39:36.896Z,13.00
2019-02-28T09:40:36.775Z,13.90
2019-02-28T09:41:40.152Z,14.10
2019-02-28T09:42:36.747Z,13.60
2019-02-28T09:43:36.852Z,13.70
2019-02-28T09:44:36.722Z,13.80
2019-02-28T09:45:39.885Z,14.20
2019-02-28T09:46:36.708Z,13.90
2019-02-28T09:47:36.746Z,11.90
2019-02-28T09:48:37.095Z,13.20
2019-02-28T09:49:36.758Z,13.40
2019-02-28T09:50:36.658Z,12.90
2019-02-28T09:51:36.774Z,11.40
2019-02-28T09:52:41.234Z,13.70
2019-02-28T09:53:36.713Z,12.10
2019-02-28T09:54:36.614Z,13.30
2019-02-28T09:55:36.702Z,13.60
2019-02-28T09:56:36.592Z,13.60
2019-02-28T09:57:36.607Z,13.40
2019-02-28T09:58:36.591Z,13.10
2019-02-28T09:59:37.811Z,13.60
2019-02-28T10:00:36.550Z,12.70
2019-02-28T10:01:36.634Z,12.20
2019-02-28T10:02:36.527Z,11.90
2019-02-28T10:03:46.511Z,13.90
2019-02-28T10:04:36.510Z,11.40
2019-02-28T10:05:42.190Z,13.10
2019-02-28T10:06:36.482Z,12.50
2019-02-28T10:07:37.497Z,13.70
2019-02-28T10:08:37.898Z,14.10
2019-02-28T10:09:36.484Z,13.80
2019-02-28T10:10:36.444Z,13.10
2019-02-28T10:11:36.498Z,14.10
2019-02-28T10:12:39.431Z,12.40
2019-02-28T10:13:37.466Z,13.50
2019-02-28T10:14:36.405Z,12.90
2019-02-28T10:15:38.735Z,13.60
2019-02-28T10:16:37.378Z,13.10
2019-02-28T10:17:36.438Z,11.80
2019-02-28T10:18:38.921Z,13.40
2019-02-28T10:19:43.882Z,12.90
2019-02-28T10:20:37.336Z,12.60
2019-02-28T10:21:39.457Z,13.10
2019-02-28T10:22:36.319Z,12.90
2019-02-28T10:23:36.411Z,13.10
2019-02-28T10:24:36.293Z,12.80
2019-02-28T10:25:40.408Z,13.70
2019-02-28T10:26:37.269Z,13.60
2019-02-28T10:27:36.300Z,12.90
2019-02-28T10:28:36.262Z,12.90
2019-02-28T10:29:38.447Z,13.40
2019-02-28T10:30:37.233Z,12.50
2019-02-28T10:31:38.467Z,13.70
2019-02-28T10:32:36.205Z,12.90
2019-02-28T10:33:36.275Z,13.40
2019-02-28T10:34:36.183Z,13.90
2019-02-28T10:35:36.779Z,13.70
2019-02-28T10:36:36.161Z,13.30
2019-02-28T10:37:36.165Z,14.10
2019-02-28T10:38:36.156Z,12.90
2019-02-28T10:39:36.178Z,12.70
2019-02-28T10:40:36.116Z,11.90
2019-02-28T10:41:36.195Z,13.40
2019-02-28T10:42:37.085Z,12.60
2019-02-28T10:43:36.135Z,13.00
2019-02-28T10:44:36.075Z,12.60
2019-02-28T10:45:40.901Z,12.90
2019-02-28T10:46:37.049Z,14.10
2019-02-28T10:47:36.131Z,13.20
2019-02-28T10:48:41.855Z,14.20
2019-02-28T10:49:37.017Z,13.40
2019-02-28T10:50:43.011Z,12.10
2019-02-28T10:51:35.996Z,12.70
2019-02-28T10:52:38.010Z,12.40
2019-02-28T10:53:36.281Z,13.30
2019-02-28T10:54:36.005Z,12.00
2019-02-28T10:55:35.959Z,12.40
2019-02-28T10:56:35.989Z,13.40
2019-02-28T10:57:37.225Z,12.50
2019-02-28T10:58:36.006Z,12.10
2019-02-28T10:59:35.921Z,13.50
2019-02-28T11:00:35.917Z,11.40
2019-02-28T11:01:35.885Z,12.50
2019-02-28T11:02:35.926Z,12.90
2019-02-28T11:03:35.864Z,12.10
2019-02-28T11:04:35.972Z,12.90
2019-02-28T11:05:35.842Z,12.40
2019-02-28T11:06:35.851Z,12.50
2019-02-28T11:07:37.893Z,11.80
2019-02-28T11:08:35.865Z,12.80
2019-02-28T11:09:35.814Z,13.50
2019-02-28T11:10:36.350Z,12.60
2019-02-28T11:11:35.780Z,11.90
2019-02-28T11:12:35.792Z,12.80
2019-02-28T11:13:35.755Z,11.80
2019-02-28T11:14:38.786Z,13.20
2019-02-28T11:15:35.733Z,12.50
2019-02-28T11:16:36.152Z,13.00
2019-02-28T11:17:35.711Z,12.70
2019-02-28T11:18:36.515Z,13.10
2019-02-28T11:19:35.701Z,12.30
2019-02-28T11:20:35.745Z,13.20
2019-02-28T11:21:35.665Z,12.50
2019-02-28T11:22:36.501Z,12.80
2019-02-28T11:23:35.649Z,13.00
2019-02-28T11:24:35.698Z,14.30
2019-02-28T11:25:35.710Z,12.80
2019-02-28T11:26:35.682Z,12.70
2019-02-28T11:27:35.601Z,13.10
2019-02-28T11:28:35.695Z,13.20
2019-02-28T11:29:36.390Z,14.00
2019-02-28T11:30:36.184Z,12.10
2019-02-28T11:31:35.561Z,13.50
2019-02-28T11:32:35.621Z,12.80
2019-02-28T11:33:36.431Z,13.50
2019-02-28T11:34:35.562Z,12.90
2019-02-28T11:35:35.516Z,12.80
2019-02-28T11:36:37.595Z,12.50
2019-02-28T11:37:35.486Z,12.50
2019-02-28T11:38:37.505Z,13.10
2019-02-28T11:39:35.485Z,12.70
2019-02-28T11:40:35.470Z,12.60
2019-02-28T11:41:35.443Z,12.90
2019-02-28T11:42:35.484Z,13.30
2019-02-28T11:43:38.458Z,11.90
2019-02-28T11:44:35.537Z,12.50
2019-02-28T11:45:35.397Z,10.90
2019-02-28T11:46:36.626Z,12.20
2019-02-28T11:47:35.377Z,11.90
2019-02-28T11:48:35.422Z,12.20
2019-02-28T11:49:35.368Z,12.30
2019-02-28T11:50:41.177Z,12.60
2019-02-28T11:51:36.327Z,12.30
2019-02-28T11:52:35.349Z,13.10
2019-02-28T11:53:38.991Z,13.00
2019-02-28T11:54:35.395Z,12.30
2019-02-28T11:55:35.289Z,11.80
2019-02-28T11:56:35.378Z,13.80
2019-02-28T11:57:37.676Z,11.10
2019-02-28T11:58:36.311Z,12.60
2019-02-28T11:59:35.256Z,12.30
2019-02-28T12:00:36.529Z,13.80
2019-02-28T12:01:35.227Z,11.70
2019-02-28T12:02:35.315Z,12.60
2019-02-28T12:03:35.659Z,12.70
2019-02-28T12:04:37.502Z,12.80
2019-02-28T12:05:36.176Z,12.60
2019-02-28T12:06:35.240Z,12.40
2019-02-28T12:07:35.676Z,13.00
2019-02-28T12:08:35.254Z,12.00
2019-02-28T12:09:35.149Z,12.40
2019-02-28T12:10:35.165Z,12.10
2019-02-28T12:11:36.505Z,13.20
2019-02-28T12:12:35.177Z,13.70
2019-02-28T12:13:35.092Z,11.40
2019-02-28T12:14:35.121Z,12.50
2019-02-28T12:15:38.111Z,11.70
2019-02-28T12:16:35.314Z,12.50
2019-02-28T12:17:35.052Z,12.50
2019-02-28T12:18:39.469Z,12.30
2019-02-28T12:19:35.041Z,12.00
2019-02-28T12:20:35.035Z,13.10
2019-02-28T12:21:37.603Z,12.00
2019-02-28T12:22:50.623Z,12.00
2019-02-28T12:23:34.981Z,12.10
2019-02-28T12:24:35.087Z,13.30
2019-02-28T12:25:34.959Z,12.40
2019-02-28T12:26:34.967Z,13.50
2019-02-28T12:27:34.936Z,12.30
2019-02-28T12:28:35.261Z,12.60
2019-02-28T12:29:34.936Z,11.80
2019-02-28T12:30:35.017Z,12.00
2019-02-28T12:31:35.638Z,11.50
2019-02-28T12:32:34.914Z,12.60
2019-02-28T12:33:34.871Z,12.80
2019-02-28T12:34:34.955Z,12.10
2019-02-28T12:35:39.944Z,13.00
2019-02-28T12:36:35.858Z,12.50
2019-02-28T12:37:34.826Z,10.60
2019-02-28T12:38:34.848Z,12.40
2019-02-28T12:39:36.353Z,13.10
2019-02-28T12:40:34.862Z,12.70
2019-02-28T12:41:34.788Z,13.40
2019-02-28T12:42:35.369Z,13.00
2019-02-28T12:43:34.762Z,13.40
2019-02-28T12:44:34.815Z,12.10
2019-02-28T12:45:34.743Z,12.70
2019-02-28T12:46:34.796Z,13.10
2019-02-28T12:47:34.715Z,12.60
2019-02-28T12:48:34.816Z,11.80
2019-02-28T12:49:34.711Z,12.30
2019-02-28T12:50:34.723Z,13.40
2019-02-28T12:51:36.550Z,12.60
2019-02-28T12:52:34.735Z,12.40
2019-02-28T12:53:34.652Z,12.20
2019-02-28T12:54:34.682Z,11.90
2019-02-28T12:55:35.419Z,12.50